sensor_id;sensor_type;location;lat;lon;timestamp;temperature;humidity
38902;DHT22;24661;53.566;9.910;2023-01-31T00:02:08;4.30;99.90
38902;DHT22;24661;53.566;9.910;2023-01-31T00:04:33;4.30;99.90
38902;DHT22;24661;53.566;9.910;2023-01-31T00:06:59;4.30;99.90
38902;DHT22;24661;53.566;9.910;2023-01-31T00:09:24;4.30;99.90
38902;DHT22;24661;53.566;9.910;2023-01-31T00:11:50;4.20;99.90
38902;DHT22;24661;53.566;9.910;2023-01-31T00:14:18;4.20;99.90
38902;DHT22;24661;53.566;9.910;2023-01-31T00:16:44;4.20;99.90
38902;DHT22;24661;53.566;9.910;2023-01-31T00:19:10;4.10;99.90
38902;DHT22;24661;53.566;9.910;2023-01-31T00:21:35;4.10;99.90
38902;DHT22;24661;53.566;9.910;2023-01-31T00:24:01;4.00;99.90
38902;DHT22;24661;53.566;9.910;2023-01-31T00:26:31;4.10;99.90
38902;DHT22;24661;53.566;9.910;2023-01-31T00:28:59;4.00;99.90
38902;DHT22;24661;53.566;9.910;2023-01-31T00:31:27;4.10;99.90
38902;DHT22;24661;53.566;9.910;2023-01-31T00:33:53;4.10;99.90
38902;DHT22;24661;53.566;9.910;2023-01-31T00:36:25;4.20;99.90
38902;DHT22;24661;53.566;9.910;2023-01-31T00:38:53;4.20;99.90
38902;DHT22;24661;53.566;9.910;2023-01-31T00:41:20;4.20;99.90
38902;DHT22;24661;53.566;9.910;2023-01-31T00:43:45;2.30;99.90
38902;DHT22;24661;53.566;9.910;2023-01-31T00:46:11;4.20;99.90
38902;DHT22;24661;53.566;9.910;2023-01-31T00:48:40;4.20;99.90
38902;DHT22;24661;53.566;9.910;2023-01-31T00:51:06;4.20;99.90
38902;DHT22;24661;53.566;9.910;2023-01-31T00:53:32;4.20;99.90
38902;DHT22;24661;53.566;9.910;2023-01-31T00:56:13;4.10;99.90
38902;DHT22;24661;53.566;9.910;2023-01-31T00:58:39;4.10;99.90
38902;DHT22;24661;53.566;9.910;2023-01-31T01:01:16;4.10;99.90
38902;DHT22;24661;53.566;9.910;2023-01-31T01:03:43;4.20;99.90
38902;DHT22;24661;53.566;9.910;2023-01-31T01:06:10;4.20;99.90
38902;DHT22;24661;53.566;9.910;2023-01-31T01:08:37;4.10;99.90
38902;DHT22;24661;53.566;9.910;2023-01-31T01:11:16;4.10;99.90
38902;DHT22;24661;53.566;9.910;2023-01-31T01:13:42;4.00;99.90
38902;DHT22;24661;53.566;9.910;2023-01-31T01:16:17;3.90;99.90
38902;DHT22;24661;53.566;9.910;2023-01-31T01:18:43;3.80;99.90
38902;DHT22;24661;53.566;9.910;2023-01-31T01:21:22;3.80;99.90
38902;DHT22;24661;53.566;9.910;2023-01-31T01:23:48;3.70;99.90
38902;DHT22;24661;53.566;9.910;2023-01-31T01:26:20;3.70;99.90
38902;DHT22;24661;53.566;9.910;2023-01-31T01:28:46;3.70;99.90
38902;DHT22;24661;53.566;9.910;2023-01-31T01:31:13;3.70;99.90
38902;DHT22;24661;53.566;9.910;2023-01-31T01:33:41;3.70;99.90
38902;DHT22;24661;53.566;9.910;2023-01-31T01:36:08;3.80;99.90
38902;DHT22;24661;53.566;9.910;2023-01-31T01:38:38;3.80;99.90
38902;DHT22;24661;53.566;9.910;2023-01-31T01:41:06;3.80;99.90
38902;DHT22;24661;53.566;9.910;2023-01-31T01:43:39;3.80;99.90
38902;DHT22;24661;53.566;9.910;2023-01-31T01:46:06;3.80;99.90
38902;DHT22;24661;53.566;9.910;2023-01-31T01:48:32;3.80;99.90
38902;DHT22;24661;53.566;9.910;2023-01-31T01:50:58;3.90;99.90
38902;DHT22;24661;53.566;9.910;2023-01-31T01:53:26;3.90;99.90
38902;DHT22;24661;53.566;9.910;2023-01-31T01:56:00;3.90;99.90
38902;DHT22;24661;53.566;9.910;2023-01-31T01:58:38;3.90;99.90
38902;DHT22;24661;53.566;9.910;2023-01-31T02:01:07;3.90;99.90
38902;DHT22;24661;53.566;9.910;2023-01-31T02:03:34;3.80;99.90
38902;DHT22;24661;53.566;9.910;2023-01-31T02:06:03;3.80;99.90
38902;DHT22;24661;53.566;9.910;2023-01-31T02:08:32;3.80;99.90
38902;DHT22;24661;53.566;9.910;2023-01-31T02:11:03;3.80;99.90
38902;DHT22;24661;53.566;9.910;2023-01-31T02:13:30;3.80;99.90
38902;DHT22;24661;53.566;9.910;2023-01-31T02:15:56;3.90;99.90
38902;DHT22;24661;53.566;9.910;2023-01-31T02:18:24;4.00;99.90
38902;DHT22;24661;53.566;9.910;2023-01-31T02:49:20;4.10;99.90
38902;DHT22;24661;53.566;9.910;2023-01-31T02:52:45;4.10;99.90
38902;DHT22;24661;53.566;9.910;2023-01-31T02:56:07;4.10;99.90
38902;DHT22;24661;53.566;9.910;2023-01-31T02:58:34;4.10;99.90
38902;DHT22;24661;53.566;9.910;2023-01-31T03:01:01;4.10;99.90
38902;DHT22;24661;53.566;9.910;2023-01-31T03:03:31;4.10;99.90
38902;DHT22;24661;53.566;9.910;2023-01-31T03:11:26;4.10;99.90
38902;DHT22;24661;53.566;9.910;2023-01-31T03:14:02;4.10;99.90
38902;DHT22;24661;53.566;9.910;2023-01-31T03:16:42;4.00;99.90
38902;DHT22;24661;53.566;9.910;2023-01-31T03:22:40;3.90;99.90
38902;DHT22;24661;53.566;9.910;2023-01-31T03:25:08;3.80;99.90
38902;DHT22;24661;53.566;9.910;2023-01-31T03:27:37;3.80;99.90
38902;DHT22;24661;53.566;9.910;2023-01-31T03:30:11;3.70;99.90
38902;DHT22;24661;53.566;9.910;2023-01-31T03:32:59;3.70;99.90
38902;DHT22;24661;53.566;9.910;2023-01-31T03:35:29;3.60;99.90
38902;DHT22;24661;53.566;9.910;2023-01-31T03:38:04;3.50;99.90
38902;DHT22;24661;53.566;9.910;2023-01-31T03:40:45;3.50;99.90
38902;DHT22;24661;53.566;9.910;2023-01-31T03:43:30;3.50;99.90
38902;DHT22;24661;53.566;9.910;2023-01-31T03:46:01;3.40;99.90
38902;DHT22;24661;53.566;9.910;2023-01-31T03:48:34;3.40;99.90
38902;DHT22;24661;53.566;9.910;2023-01-31T03:51:05;3.40;99.90
38902;DHT22;24661;53.566;9.910;2023-01-31T03:53:41;3.50;99.90
38902;DHT22;24661;53.566;9.910;2023-01-31T03:56:21;3.50;99.90
38902;DHT22;24661;53.566;9.910;2023-01-31T03:58:53;3.70;99.90
38902;DHT22;24661;53.566;9.910;2023-01-31T04:01:22;3.60;99.90
38902;DHT22;24661;53.566;9.910;2023-01-31T04:03:58;3.70;99.90
38902;DHT22;24661;53.566;9.910;2023-01-31T04:06:26;3.70;99.90
38902;DHT22;24661;53.566;9.910;2023-01-31T04:08:52;3.70;99.90
38902;DHT22;24661;53.566;9.910;2023-01-31T04:11:19;3.10;99.90
38902;DHT22;24661;53.566;9.910;2023-01-31T04:13:45;3.70;99.90
38902;DHT22;24661;53.566;9.910;2023-01-31T04:16:11;3.70;99.90
38902;DHT22;24661;53.566;9.910;2023-01-31T04:18:37;3.70;99.90
38902;DHT22;24661;53.566;9.910;2023-01-31T04:21:03;3.70;99.90
38902;DHT22;24661;53.566;9.910;2023-01-31T04:23:28;3.80;99.90
38902;DHT22;24661;53.566;9.910;2023-01-31T04:25:54;3.70;99.90
38902;DHT22;24661;53.566;9.910;2023-01-31T04:28:20;3.70;99.90
38902;DHT22;24661;53.566;9.910;2023-01-31T04:30:54;3.70;99.90
38902;DHT22;24661;53.566;9.910;2023-01-31T04:33:20;3.70;99.90
38902;DHT22;24661;53.566;9.910;2023-01-31T04:35:46;3.70;99.90
38902;DHT22;24661;53.566;9.910;2023-01-31T04:38:11;3.80;99.90
38902;DHT22;24661;53.566;9.910;2023-01-31T04:40:37;3.80;99.90
38902;DHT22;24661;53.566;9.910;2023-01-31T04:43:03;3.80;99.90
38902;DHT22;24661;53.566;9.910;2023-01-31T04:45:28;3.80;99.90
38902;DHT22;24661;53.566;9.910;2023-01-31T04:47:55;3.80;99.90
38902;DHT22;24661;53.566;9.910;2023-01-31T04:50:20;5.10;99.90
38902;DHT22;24661;53.566;9.910;2023-01-31T04:52:50;3.90;99.90
38902;DHT22;24661;53.566;9.910;2023-01-31T04:55:16;3.90;99.90
38902;DHT22;24661;53.566;9.910;2023-01-31T04:57:42;3.90;99.90
38902;DHT22;24661;53.566;9.910;2023-01-31T05:00:09;3.80;99.90
38902;DHT22;24661;53.566;9.910;2023-01-31T05:02:35;3.80;99.90
38902;DHT22;24661;53.566;9.910;2023-01-31T05:05:01;3.50;99.90
38902;DHT22;24661;53.566;9.910;2023-01-31T05:07:27;3.80;99.90
38902;DHT22;24661;53.566;9.910;2023-01-31T05:09:52;3.90;99.90
38902;DHT22;24661;53.566;9.910;2023-01-31T05:12:18;3.90;99.90
38902;DHT22;24661;53.566;9.910;2023-01-31T05:14:44;3.90;99.90
38902;DHT22;24661;53.566;9.910;2023-01-31T05:17:09;3.90;99.90
38902;DHT22;24661;53.566;9.910;2023-01-31T05:19:35;3.90;99.90
38902;DHT22;24661;53.566;9.910;2023-01-31T05:22:00;3.90;99.90
38902;DHT22;24661;53.566;9.910;2023-01-31T05:24:30;4.00;99.90
38902;DHT22;24661;53.566;9.910;2023-01-31T05:26:59;4.00;99.90
38902;DHT22;24661;53.566;9.910;2023-01-31T05:29:26;4.00;99.90
38902;DHT22;24661;53.566;9.910;2023-01-31T05:31:54;4.00;99.90
38902;DHT22;24661;53.566;9.910;2023-01-31T05:34:21;4.00;99.90
38902;DHT22;24661;53.566;9.910;2023-01-31T05:36:47;4.00;99.90
38902;DHT22;24661;53.566;9.910;2023-01-31T05:39:12;4.00;99.90
38902;DHT22;24661;53.566;9.910;2023-01-31T05:41:38;4.10;99.90
38902;DHT22;24661;53.566;9.910;2023-01-31T05:44:04;4.10;99.90
38902;DHT22;24661;53.566;9.910;2023-01-31T05:46:29;4.10;99.90
38902;DHT22;24661;53.566;9.910;2023-01-31T05:48:55;4.10;99.90
38902;DHT22;24661;53.566;9.910;2023-01-31T05:51:20;4.10;99.90
38902;DHT22;24661;53.566;9.910;2023-01-31T05:53:46;4.10;99.90
38902;DHT22;24661;53.566;9.910;2023-01-31T05:56:13;4.10;99.90
38902;DHT22;24661;53.566;9.910;2023-01-31T05:58:39;4.10;99.90
38902;DHT22;24661;53.566;9.910;2023-01-31T06:01:04;4.10;99.90
38902;DHT22;24661;53.566;9.910;2023-01-31T06:03:30;4.10;99.90
38902;DHT22;24661;53.566;9.910;2023-01-31T06:05:56;4.10;99.90
38902;DHT22;24661;53.566;9.910;2023-01-31T06:08:21;4.20;99.90
38902;DHT22;24661;53.566;9.910;2023-01-31T06:10:47;4.20;99.90
38902;DHT22;24661;53.566;9.910;2023-01-31T06:13:12;4.20;99.90
38902;DHT22;24661;53.566;9.910;2023-01-31T06:15:42;4.20;99.90
38902;DHT22;24661;53.566;9.910;2023-01-31T06:18:08;4.20;99.90
38902;DHT22;24661;53.566;9.910;2023-01-31T06:20:33;4.30;99.90
38902;DHT22;24661;53.566;9.910;2023-01-31T06:22:59;4.20;99.90
38902;DHT22;24661;53.566;9.910;2023-01-31T06:25:26;4.20;99.90
38902;DHT22;24661;53.566;9.910;2023-01-31T06:27:51;4.30;99.90
38902;DHT22;24661;53.566;9.910;2023-01-31T06:30:19;4.30;99.90
38902;DHT22;24661;53.566;9.910;2023-01-31T06:32:45;4.30;99.90
38902;DHT22;24661;53.566;9.910;2023-01-31T06:35:11;4.30;99.90
38902;DHT22;24661;53.566;9.910;2023-01-31T06:37:36;4.30;99.90
38902;DHT22;24661;53.566;9.910;2023-01-31T06:40:02;4.30;99.90
38902;DHT22;24661;53.566;9.910;2023-01-31T06:42:28;4.40;99.90
38902;DHT22;24661;53.566;9.910;2023-01-31T06:44:53;4.40;99.90
38902;DHT22;24661;53.566;9.910;2023-01-31T06:47:19;4.40;99.90
38902;DHT22;24661;53.566;9.910;2023-01-31T06:49:44;4.40;99.90
38902;DHT22;24661;53.566;9.910;2023-01-31T06:52:10;4.30;99.90
38902;DHT22;24661;53.566;9.910;2023-01-31T06:54:36;4.40;99.90
38902;DHT22;24661;53.566;9.910;2023-01-31T06:57:01;4.40;99.90
38902;DHT22;24661;53.566;9.910;2023-01-31T06:59:27;4.40;99.90
38902;DHT22;24661;53.566;9.910;2023-01-31T07:01:52;4.40;99.90
38902;DHT22;24661;53.566;9.910;2023-01-31T07:04:18;4.30;99.90
38902;DHT22;24661;53.566;9.910;2023-01-31T07:06:44;4.40;99.90
38902;DHT22;24661;53.566;9.910;2023-01-31T07:09:10;4.30;99.90
38902;DHT22;24661;53.566;9.910;2023-01-31T07:11:36;4.30;99.90
38902;DHT22;24661;53.566;9.910;2023-01-31T07:14:02;4.30;99.90
38902;DHT22;24661;53.566;9.910;2023-01-31T07:16:28;4.30;99.90
38902;DHT22;24661;53.566;9.910;2023-01-31T07:18:54;4.40;99.90
38902;DHT22;24661;53.566;9.910;2023-01-31T07:21:21;4.40;99.90
38902;DHT22;24661;53.566;9.910;2023-01-31T07:23:47;4.40;99.90
38902;DHT22;24661;53.566;9.910;2023-01-31T07:26:13;4.40;99.90
38902;DHT22;24661;53.566;9.910;2023-01-31T07:28:39;4.50;99.90
38902;DHT22;24661;53.566;9.910;2023-01-31T07:31:06;4.50;99.90
38902;DHT22;24661;53.566;9.910;2023-01-31T07:33:35;4.50;99.90
38902;DHT22;24661;53.566;9.910;2023-01-31T07:36:02;4.70;99.90
38902;DHT22;24661;53.566;9.910;2023-01-31T07:38:29;4.60;99.90
38902;DHT22;24661;53.566;9.910;2023-01-31T07:41:01;4.60;99.90
38902;DHT22;24661;53.566;9.910;2023-01-31T07:43:31;4.70;99.90
38902;DHT22;24661;53.566;9.910;2023-01-31T07:45:57;4.70;99.90
38902;DHT22;24661;53.566;9.910;2023-01-31T07:48:23;4.70;99.90
38902;DHT22;24661;53.566;9.910;2023-01-31T07:51:07;4.70;99.90
38902;DHT22;24661;53.566;9.910;2023-01-31T07:53:37;4.80;99.90
38902;DHT22;24661;53.566;9.910;2023-01-31T07:56:17;4.80;99.90
38902;DHT22;24661;53.566;9.910;2023-01-31T07:58:45;4.80;99.90
38902;DHT22;24661;53.566;9.910;2023-01-31T08:01:19;4.90;99.90
38902;DHT22;24661;53.566;9.910;2023-01-31T08:04:05;4.90;99.90
38902;DHT22;24661;53.566;9.910;2023-01-31T08:06:31;4.90;99.90
38902;DHT22;24661;53.566;9.910;2023-01-31T08:08:57;4.90;99.90
38902;DHT22;24661;53.566;9.910;2023-01-31T08:11:23;5.00;99.90
38902;DHT22;24661;53.566;9.910;2023-01-31T08:13:49;5.00;99.90
38902;DHT22;24661;53.566;9.910;2023-01-31T08:16:14;5.00;99.90
38902;DHT22;24661;53.566;9.910;2023-01-31T08:18:40;5.10;99.90
38902;DHT22;24661;53.566;9.910;2023-01-31T08:21:07;5.10;99.90
38902;DHT22;24661;53.566;9.910;2023-01-31T08:23:35;5.10;99.90
38902;DHT22;24661;53.566;9.910;2023-01-31T08:26:21;5.10;99.90
38902;DHT22;24661;53.566;9.910;2023-01-31T08:28:49;5.10;99.90
38902;DHT22;24661;53.566;9.910;2023-01-31T08:31:20;5.10;99.90
38902;DHT22;24661;53.566;9.910;2023-01-31T08:33:47;5.10;99.90
38902;DHT22;24661;53.566;9.910;2023-01-31T08:36:20;5.20;99.90
38902;DHT22;24661;53.566;9.910;2023-01-31T08:38:46;5.20;99.90
38902;DHT22;24661;53.566;9.910;2023-01-31T08:41:13;5.20;99.90
38902;DHT22;24661;53.566;9.910;2023-01-31T08:43:39;5.20;99.90
38902;DHT22;24661;53.566;9.910;2023-01-31T08:46:06;5.20;99.90
38902;DHT22;24661;53.566;9.910;2023-01-31T08:48:33;7.30;99.90
38902;DHT22;24661;53.566;9.910;2023-01-31T08:51:02;5.30;99.90
38902;DHT22;24661;53.566;9.910;2023-01-31T08:53:28;5.30;99.90
38902;DHT22;24661;53.566;9.910;2023-01-31T08:55:58;5.30;99.90
38902;DHT22;24661;53.566;9.910;2023-01-31T08:58:24;5.30;99.90
38902;DHT22;24661;53.566;9.910;2023-01-31T09:00:50;5.30;99.90
38902;DHT22;24661;53.566;9.910;2023-01-31T09:03:15;5.30;99.90
38902;DHT22;24661;53.566;9.910;2023-01-31T09:05:41;5.40;99.90
38902;DHT22;24661;53.566;9.910;2023-01-31T09:08:06;5.40;99.90
38902;DHT22;24661;53.566;9.910;2023-01-31T09:10:32;5.40;99.90
38902;DHT22;24661;53.566;9.910;2023-01-31T09:12:59;5.30;99.90
38902;DHT22;24661;53.566;9.910;2023-01-31T09:15:25;5.30;99.90
38902;DHT22;24661;53.566;9.910;2023-01-31T09:17:51;5.30;99.90
38902;DHT22;24661;53.566;9.910;2023-01-31T09:20:17;5.30;99.90
38902;DHT22;24661;53.566;9.910;2023-01-31T09:22:43;5.40;99.90
38902;DHT22;24661;53.566;9.910;2023-01-31T09:25:09;5.40;99.90
38902;DHT22;24661;53.566;9.910;2023-01-31T09:27:36;5.40;99.90
38902;DHT22;24661;53.566;9.910;2023-01-31T09:30:04;5.40;99.90
38902;DHT22;24661;53.566;9.910;2023-01-31T09:32:30;5.40;99.90
38902;DHT22;24661;53.566;9.910;2023-01-31T09:34:57;5.40;99.90
38902;DHT22;24661;53.566;9.910;2023-01-31T09:37:23;5.40;99.90
38902;DHT22;24661;53.566;9.910;2023-01-31T09:39:49;5.40;99.90
38902;DHT22;24661;53.566;9.910;2023-01-31T09:42:30;5.30;99.90
38902;DHT22;24661;53.566;9.910;2023-01-31T09:45:05;5.30;99.90
38902;DHT22;24661;53.566;9.910;2023-01-31T09:47:42;5.20;99.90
38902;DHT22;24661;53.566;9.910;2023-01-31T09:50:32;5.20;99.90
38902;DHT22;24661;53.566;9.910;2023-01-31T09:52:59;5.20;99.90
38902;DHT22;24661;53.566;9.910;2023-01-31T09:58:30;5.20;99.90
38902;DHT22;24661;53.566;9.910;2023-01-31T10:07:00;5.20;99.90
38902;DHT22;24661;53.566;9.910;2023-01-31T10:09:42;5.20;99.90
38902;DHT22;24661;53.566;9.910;2023-01-31T10:12:19;5.20;99.90
38902;DHT22;24661;53.566;9.910;2023-01-31T10:15:01;5.20;99.90
38902;DHT22;24661;53.566;9.910;2023-01-31T10:17:35;5.30;99.90
38902;DHT22;24661;53.566;9.910;2023-01-31T10:25:59;5.30;99.90
38902;DHT22;24661;53.566;9.910;2023-01-31T10:28:37;5.40;99.90
38902;DHT22;24661;53.566;9.910;2023-01-31T10:33:55;5.40;99.90
38902;DHT22;24661;53.566;9.910;2023-01-31T10:36:42;5.40;99.90
38902;DHT22;24661;53.566;9.910;2023-01-31T10:39:28;5.50;99.90
38902;DHT22;24661;53.566;9.910;2023-01-31T10:42:09;5.40;99.90
38902;DHT22;24661;53.566;9.910;2023-01-31T10:44:50;5.40;99.90
38902;DHT22;24661;53.566;9.910;2023-01-31T10:47:18;5.40;99.90
38902;DHT22;24661;53.566;9.910;2023-01-31T10:49:46;5.40;99.90
38902;DHT22;24661;53.566;9.910;2023-01-31T10:57:58;5.50;99.90
38902;DHT22;24661;53.566;9.910;2023-01-31T11:00:32;5.50;99.90
38902;DHT22;24661;53.566;9.910;2023-01-31T11:02:58;5.50;99.90
38902;DHT22;24661;53.566;9.910;2023-01-31T11:05:26;5.50;99.90
38902;DHT22;24661;53.566;9.910;2023-01-31T11:07:55;5.60;99.90
38902;DHT22;24661;53.566;9.910;2023-01-31T11:10:30;5.50;99.90
38902;DHT22;24661;53.566;9.910;2023-01-31T11:12:59;5.60;99.90
38902;DHT22;24661;53.566;9.910;2023-01-31T11:15:39;5.60;99.90
38902;DHT22;24661;53.566;9.910;2023-01-31T11:18:14;5.60;99.90
38902;DHT22;24661;53.566;9.910;2023-01-31T11:20:45;5.60;99.90
38902;DHT22;24661;53.566;9.910;2023-01-31T11:23:14;5.70;99.90
38902;DHT22;24661;53.566;9.910;2023-01-31T11:25:47;5.70;99.90
38902;DHT22;24661;53.566;9.910;2023-01-31T11:28:34;5.80;99.90
38902;DHT22;24661;53.566;9.910;2023-01-31T11:31:02;5.80;99.90
38902;DHT22;24661;53.566;9.910;2023-01-31T11:33:47;5.80;99.90
38902;DHT22;24661;53.566;9.910;2023-01-31T11:36:19;5.80;99.90
38902;DHT22;24661;53.566;9.910;2023-01-31T11:38:48;5.90;99.90
38902;DHT22;24661;53.566;9.910;2023-01-31T11:41:34;5.90;99.90
38902;DHT22;24661;53.566;9.910;2023-01-31T11:44:11;5.90;99.90
38902;DHT22;24661;53.566;9.910;2023-01-31T11:46:57;5.90;99.90
38902;DHT22;24661;53.566;9.910;2023-01-31T11:49:41;5.90;99.90
38902;DHT22;24661;53.566;9.910;2023-01-31T11:52:20;5.90;99.90
38902;DHT22;24661;53.566;9.910;2023-01-31T11:54:50;5.90;99.90
38902;DHT22;24661;53.566;9.910;2023-01-31T11:57:37;5.90;99.90
38902;DHT22;24661;53.566;9.910;2023-01-31T12:00:18;5.90;99.90
38902;DHT22;24661;53.566;9.910;2023-01-31T12:02:46;5.90;99.90
38902;DHT22;24661;53.566;9.910;2023-01-31T12:05:17;5.90;99.90
38902;DHT22;24661;53.566;9.910;2023-01-31T12:07:49;6.00;99.90
38902;DHT22;24661;53.566;9.910;2023-01-31T12:10:35;6.00;99.90
38902;DHT22;24661;53.566;9.910;2023-01-31T12:13:17;6.00;99.90
38902;DHT22;24661;53.566;9.910;2023-01-31T12:15:47;6.00;99.90
38902;DHT22;24661;53.566;9.910;2023-01-31T12:40:36;6.20;99.90
38902;DHT22;24661;53.566;9.910;2023-01-31T12:43:17;6.20;99.90
38902;DHT22;24661;53.566;9.910;2023-01-31T12:48:29;6.20;99.90
38902;DHT22;24661;53.566;9.910;2023-01-31T12:53:49;6.30;99.90
38902;DHT22;24661;53.566;9.910;2023-01-31T13:02:15;6.30;99.90
38902;DHT22;24661;53.566;9.910;2023-01-31T13:04:59;6.40;99.90
38902;DHT22;24661;53.566;9.910;2023-01-31T13:07:47;6.40;99.90
38902;DHT22;24661;53.566;9.910;2023-01-31T13:10:39;6.50;99.90
38902;DHT22;24661;53.566;9.910;2023-01-31T13:13:14;6.50;99.90
38902;DHT22;24661;53.566;9.910;2023-01-31T13:15:53;6.60;99.90
38902;DHT22;24661;53.566;9.910;2023-01-31T13:18:20;6.60;99.90
38902;DHT22;24661;53.566;9.910;2023-01-31T13:20:56;7.90;99.90
38902;DHT22;24661;53.566;9.910;2023-01-31T13:23:37;6.60;99.90
38902;DHT22;24661;53.566;9.910;2023-01-31T13:26:10;6.60;99.90
38902;DHT22;24661;53.566;9.910;2023-01-31T13:28:42;6.60;99.90
38902;DHT22;24661;53.566;9.910;2023-01-31T13:31:23;6.70;99.90
38902;DHT22;24661;53.566;9.910;2023-01-31T13:36:42;6.80;99.90
38902;DHT22;24661;53.566;9.910;2023-01-31T13:39:16;6.90;99.90
38902;DHT22;24661;53.566;9.910;2023-01-31T13:41:44;6.80;99.90
38902;DHT22;24661;53.566;9.910;2023-01-31T13:44:12;6.90;99.90
38902;DHT22;24661;53.566;9.910;2023-01-31T13:46:43;6.80;99.90
38902;DHT22;24661;53.566;9.910;2023-01-31T13:52:21;6.90;99.90
38902;DHT22;24661;53.566;9.910;2023-01-31T13:54:52;7.00;99.90
38902;DHT22;24661;53.566;9.910;2023-01-31T13:57:31;7.00;99.90
38902;DHT22;24661;53.566;9.910;2023-01-31T14:03:13;7.00;99.90
38902;DHT22;24661;53.566;9.910;2023-01-31T14:08:27;7.00;99.90
38902;DHT22;24661;53.566;9.910;2023-01-31T14:10:55;7.00;99.90
38902;DHT22;24661;53.566;9.910;2023-01-31T14:13:25;7.00;99.90
38902;DHT22;24661;53.566;9.910;2023-01-31T14:15:52;7.00;99.90
38902;DHT22;24661;53.566;9.910;2023-01-31T14:18:54;7.00;99.90
38902;DHT22;24661;53.566;9.910;2023-01-31T14:24:02;7.00;99.90
38902;DHT22;24661;53.566;9.910;2023-01-31T14:29:18;7.00;99.90
38902;DHT22;24661;53.566;9.910;2023-01-31T14:31:45;7.10;99.90
38902;DHT22;24661;53.566;9.910;2023-01-31T14:34:16;7.10;99.90
38902;DHT22;24661;53.566;9.910;2023-01-31T14:37:14;7.10;99.90
38902;DHT22;24661;53.566;9.910;2023-01-31T14:42:55;7.10;99.90
38902;DHT22;24661;53.566;9.910;2023-01-31T14:48:18;7.10;99.90
38902;DHT22;24661;53.566;9.910;2023-01-31T14:53:51;7.10;99.90
38902;DHT22;24661;53.566;9.910;2023-01-31T15:00:04;7.10;99.90
38902;DHT22;24661;53.566;9.910;2023-01-31T15:05:06;7.10;99.90
38902;DHT22;24661;53.566;9.910;2023-01-31T15:07:34;7.10;99.90
38902;DHT22;24661;53.566;9.910;2023-01-31T15:09:59;7.10;99.90
38902;DHT22;24661;53.566;9.910;2023-01-31T15:12:54;7.10;99.90
38902;DHT22;24661;53.566;9.910;2023-01-31T15:15:37;7.20;99.90
38902;DHT22;24661;53.566;9.910;2023-01-31T15:18:18;5.70;99.90
38902;DHT22;24661;53.566;9.910;2023-01-31T15:20:48;7.10;99.90
38902;DHT22;24661;53.566;9.910;2023-01-31T15:23:25;7.10;99.90
38902;DHT22;24661;53.566;9.910;2023-01-31T15:25:54;7.00;99.90
38902;DHT22;24661;53.566;9.910;2023-01-31T15:28:25;7.00;99.90
38902;DHT22;24661;53.566;9.910;2023-01-31T15:30:55;7.00;99.90
38902;DHT22;24661;53.566;9.910;2023-01-31T15:33:25;7.00;99.90
38902;DHT22;24661;53.566;9.910;2023-01-31T15:35:57;7.00;99.90
38902;DHT22;24661;53.566;9.910;2023-01-31T15:38:33;7.00;99.90
38902;DHT22;24661;53.566;9.910;2023-01-31T15:41:24;7.10;99.90
38902;DHT22;24661;53.566;9.910;2023-01-31T15:43:55;7.10;99.90
38902;DHT22;24661;53.566;9.910;2023-01-31T15:46:26;7.10;99.90
38902;DHT22;24661;53.566;9.910;2023-01-31T15:48:52;7.20;99.90
38902;DHT22;24661;53.566;9.910;2023-01-31T15:51:19;7.10;99.90
38902;DHT22;24661;53.566;9.910;2023-01-31T15:53:45;7.10;99.90
38902;DHT22;24661;53.566;9.910;2023-01-31T15:56:21;7.10;99.90
38902;DHT22;24661;53.566;9.910;2023-01-31T15:58:50;7.20;99.90
38902;DHT22;24661;53.566;9.910;2023-01-31T16:01:17;7.20;99.90
38902;DHT22;24661;53.566;9.910;2023-01-31T16:03:54;7.20;99.90
38902;DHT22;24661;53.566;9.910;2023-01-31T16:06:33;7.20;99.90
38902;DHT22;24661;53.566;9.910;2023-01-31T16:09:00;7.30;99.90
38902;DHT22;24661;53.566;9.910;2023-01-31T16:11:27;7.20;99.90
38902;DHT22;24661;53.566;9.910;2023-01-31T16:13:56;7.20;99.90
38902;DHT22;24661;53.566;9.910;2023-01-31T16:16:24;7.30;99.90
38902;DHT22;24661;53.566;9.910;2023-01-31T16:18:56;6.20;99.90
38902;DHT22;24661;53.566;9.910;2023-01-31T16:26:47;4.70;99.90
38902;DHT22;24661;53.566;9.910;2023-01-31T16:29:17;6.30;99.90
38902;DHT22;24661;53.566;9.910;2023-01-31T16:31:54;4.40;99.90
38902;DHT22;24661;53.566;9.910;2023-01-31T16:37:07;4.30;99.90
38902;DHT22;24661;53.566;9.910;2023-01-31T16:39:48;4.30;99.90
38902;DHT22;24661;53.566;9.910;2023-01-31T16:44:45;4.20;99.90
38902;DHT22;24661;53.566;9.910;2023-01-31T16:50:33;4.20;99.90
38902;DHT22;24661;53.566;9.910;2023-01-31T16:53:13;4.30;99.90
38902;DHT22;24661;53.566;9.910;2023-01-31T16:55:40;4.30;99.90
38902;DHT22;24661;53.566;9.910;2023-01-31T16:58:10;4.40;99.90
38902;DHT22;24661;53.566;9.910;2023-01-31T17:00:36;4.50;99.90
38902;DHT22;24661;53.566;9.910;2023-01-31T17:03:11;4.50;99.90
38902;DHT22;24661;53.566;9.910;2023-01-31T17:05:43;4.60;99.90
38902;DHT22;24661;53.566;9.910;2023-01-31T17:08:14;4.80;99.90
38902;DHT22;24661;53.566;9.910;2023-01-31T17:10:41;5.00;99.90
38902;DHT22;24661;53.566;9.910;2023-01-31T17:13:20;5.20;99.90
38902;DHT22;24661;53.566;9.910;2023-01-31T17:15:47;5.30;99.90
38902;DHT22;24661;53.566;9.910;2023-01-31T17:18:13;5.30;99.90
38902;DHT22;24661;53.566;9.910;2023-01-31T17:20:44;5.40;99.90
38902;DHT22;24661;53.566;9.910;2023-01-31T17:23:11;5.40;99.90
38902;DHT22;24661;53.566;9.910;2023-01-31T17:25:39;5.50;99.90
38902;DHT22;24661;53.566;9.910;2023-01-31T17:28:05;5.60;99.90
38902;DHT22;24661;53.566;9.910;2023-01-31T17:30:31;5.70;99.90
38902;DHT22;24661;53.566;9.910;2023-01-31T17:32:58;5.80;99.90
38902;DHT22;24661;53.566;9.910;2023-01-31T17:35:32;5.80;99.90
38902;DHT22;24661;53.566;9.910;2023-01-31T17:37:59;5.80;99.90
38902;DHT22;24661;53.566;9.910;2023-01-31T17:40:25;5.60;99.90
38902;DHT22;24661;53.566;9.910;2023-01-31T17:42:56;5.50;99.90
38902;DHT22;24661;53.566;9.910;2023-01-31T17:45:22;5.50;99.90
38902;DHT22;24661;53.566;9.910;2023-01-31T17:47:47;5.60;99.90
38902;DHT22;24661;53.566;9.910;2023-01-31T17:50:15;5.60;99.90
38902;DHT22;24661;53.566;9.910;2023-01-31T17:52:41;6.70;99.90
38902;DHT22;24661;53.566;9.910;2023-01-31T17:55:11;5.60;99.90
38902;DHT22;24661;53.566;9.910;2023-01-31T17:57:37;5.60;99.90
38902;DHT22;24661;53.566;9.910;2023-01-31T18:00:05;5.60;99.90
38902;DHT22;24661;53.566;9.910;2023-01-31T18:02:32;3.70;99.90
38902;DHT22;24661;53.566;9.910;2023-01-31T18:04:58;5.60;99.90
38902;DHT22;24661;53.566;9.910;2023-01-31T18:07:40;5.60;99.90
38902;DHT22;24661;53.566;9.910;2023-01-31T18:10:12;5.60;99.90
38902;DHT22;24661;53.566;9.910;2023-01-31T18:12:40;4.90;99.90
38902;DHT22;24661;53.566;9.910;2023-01-31T18:15:10;5.60;99.90
38902;DHT22;24661;53.566;9.910;2023-01-31T18:17:37;5.60;99.90
38902;DHT22;24661;53.566;9.910;2023-01-31T18:20:03;7.50;99.90
38902;DHT22;24661;53.566;9.910;2023-01-31T18:22:29;5.60;99.90
38902;DHT22;24661;53.566;9.910;2023-01-31T18:24:55;5.70;99.90
38902;DHT22;24661;53.566;9.910;2023-01-31T18:27:21;5.70;99.90